Sonic Adventure (DX): Overall Rankings

Records: Times | Rings | Scores | Races | Bosses | Freestyle
Leaders: Times | Rings | Scores | Races | Bosses | Freestyle | Overall
Rank Player Percent Points Date
1 Sonicspeedruner 98.4% 239 12-21-14
2 Gamepro011 97.5% 387 12-21-14
3 DarkPolarNight 96.4% 559 12-21-14
4 Jawzun 94.0% 940 12-21-14
5 Dashjump 92.0% 1249 12-21-14
6 DarkspinesSonic 91.2% 1385 12-21-14
7 Avento128bits 90.7% 1463 12-21-14
8 ike6252 90.6% 1482 12-21-14
9 F-Man 86.4% 2142 12-21-14
10 yoshifan 84.2% 2493 12-21-14
11 Coolfansonic 83.9% 2542 12-21-14
12 frankoredstrato 83.7% 2568 12-21-14
13 HyperSonic7701 82.8% 2718 12-21-14
14 francisco 82.7% 2733 12-21-14
15 Marth 82.3% 2790 12-21-14
16 PfoSonic 80.8% 3026 12-21-14
17 InferSaime 80.2% 3117 12-21-14
18 Paragod 80.2% 3122 12-21-14
19 THC98 78.7% 3363 12-21-14
20 Stefan 77.1% 3606 12-21-14
21 RPGnutter 75.0% 3940 12-21-14
22 bertin 74.7% 3991 12-21-14
23 sonicam 72.5% 4333 12-21-14
24 Combo 66.7% 5247 12-21-14
25 SkyLights 65.5% 5440 12-21-14
26 Diamond 63.5% 5755 12-21-14
27 GerbilSoft 61.3% 6111 12-21-14
28 Auriman1 61.3% 6115 12-21-14
29 OmegaDJ 61.2% 6119 12-21-14
30 magnum12 60.2% 6278 12-21-14
31 Dawid8404 60.1% 6290 12-21-14
32 Thorn 58.3% 6584 12-21-14
33 P1 Pause 58.1% 6620 12-21-14
34 mike89 56.8% 6813 12-21-14
35 Groudon199 54.8% 7134 12-21-14
36 Dave Cramer 54.8% 7136 12-21-14
37 chainchumper 54.3% 7208 12-21-14
38 Shadow Jacky 53.7% 7307 12-21-14
39 Parax 53.5% 7344 12-21-14
40 Psymar 48.5% 8137 12-21-14
41 Chao_Fan 46.7% 8413 12-21-14
42 Arch 46.3% 8472 12-21-14
43 mauserman 45.9% 8545 12-21-14
44 Quartz 45.5% 8607 12-21-14
45 teamblackarms 44.5% 8757 12-21-14
46 Psyknux 44.1% 8833 12-21-14
47 James_Bertolli 43.7% 8890 12-21-14
48 NintenDan 43.3% 8950 12-21-14
49 Webber3000 42.6% 9058 12-21-14
50 Turbos 42.4% 9089 12-21-14
51 Ring Rush 42.4% 9102 12-21-14
52 Fr3nZy 42.3% 9106 12-21-14
53 Cream147 42.3% 9109 12-21-14
54 videogamemaster777 42.1% 9137 12-21-14
55 Siavash Tazari 41.8% 9196 12-21-14
56 buddychaos0415 41.4% 9260 12-21-14
57 SadisticMystic 40.5% 9388 12-21-14
58 eggFL 39.9% 9493 12-21-14
59 Redd 39.3% 9588 12-21-14
60 SB737 38.3% 9743 12-21-14
61 drminus 37.8% 9816 12-21-14
62 supersonicfan 37.0% 9941 12-21-14
63 FuzZerd 35.9% 10125 12-21-14
64 elecmouse101 35.3% 10222 12-21-14
65 supersonic465 35.2% 10240 12-21-14
66 metanightmare22 33.6% 10487 12-21-14
67 Austinf 33.5% 10502 12-21-14
68 Aitamen 33.5% 10505 12-21-14
69 dabestgamer 33.4% 10512 12-21-14
70 Cyan Ryan 33.3% 10532 12-21-14
71 MiStEr_ShAoLiN 33.2% 10545 12-21-14
72 itsPersonnal 32.1% 10715 12-21-14
73 Cybrax 31.4% 10828 12-21-14
74 Andrea Ritsu 31.2% 10859 12-21-14
75 SilvertheAlmighty 31.1% 10874 12-21-14
76 danieldude 30.7% 10945 12-21-14
77 SonicDash1999 30.2% 11022 12-21-14
78 VMU Player Banned 29.2% 11177 12-21-14
79 Staf 28.8% 11251 12-21-14
80 Omega Rafael Santos 28.7% 11258 12-21-14
81 The T 28.5% 11294 12-21-14
82 EngiNerd 28.2% 11336 12-21-14
83 lordmetalsonic 27.5% 11450 12-21-14
84 Hipertails12 27.0% 11527 12-21-14
85 welldooder64 26.9% 11549 12-21-14
86 Sondow 26.8% 11566 12-21-14
87 GreatStar 26.7% 11568 12-21-14
88 The Great Lord Mick 26.5% 11604 12-21-14
89 LinksDarkArrows 26.3% 11636 12-21-14
90 Skylace 25.4% 11778 12-21-14
91 Mastakirby 24.9% 11866 12-21-14
92 Rolken 23.9% 12025 12-21-14
93 Xia 22.3% 12269 12-21-14
94 Kogen Player Banned 22.2% 12284 12-21-14
95 Spinballwizard 22.1% 12304 12-21-14
96 Cutiefox 21.7% 12369 12-21-14
97 f0rever_zer0 21.6% 12382 12-21-14
98 Don 21.5% 12390 12-21-14
99 Miles9999 21.4% 12407 12-21-14
100 Nimrod 21.4% 12415 12-21-14
101 andres430 20.8% 12504 12-21-14
102 Cruizer 20.7% 12519 12-21-14
103 iSonicKid2K 20.5% 12548 12-21-14
104 SADXTryHard 20.2% 12609 12-21-14
105 GarnetPrincess 19.8% 12669 12-21-14
106 knuckles_sonic8 19.1% 12771 12-21-14
107 Team_Yoshi 18.4% 12886 12-21-14
108 The Knuckles Chao 18.3% 12903 12-21-14
109 FoxBoy 18.0% 12945 12-21-14
110 Termon 17.9% 12960 12-21-14
111 KinkyCadence 17.9% 12973 12-21-14
112 Sonic Singularity 15.8% 13291 12-21-14
113 Pokemonmaster888 15.8% 13297 12-21-14
114 BigAL49 14.8% 13449 12-21-14
115 SilverSonic 14.7% 13473 12-21-14
116 MPit08 14.6% 13489 12-21-14
117 Mo Player Banned 14.3% 13542 12-21-14
118 HyperSonic64 13.6% 13641 12-21-14
119 Cod4Scopes 13.6% 13642 12-21-14
120 booo95 13.5% 13662 12-21-14
121 Chawkk 13.3% 13690 12-21-14
122 SuperSonic101 13.2% 13711 12-21-14
123 Maxinfamily 12.9% 13749 12-21-14
124 Hunters13 12.9% 13760 12-21-14
125 Kanimayo_Jp 12.7% 13794 12-21-14
126 PsyBorg 12.5% 13814 12-21-14
127 BrokenArthritis 12.5% 13815 12-21-14
128 LilZero 12.5% 13821 12-21-14
129 Flying Fox 12.5% 13825 12-21-14
130 paulie9990 12.4% 13837 12-21-14
131 sonicspeed 11.9% 13910 12-21-14
132 douglas 11.7% 13944 12-21-14
133 Therio 11.7% 13954 12-21-14
134 Matt_TY 11.5% 13979 12-21-14
135 Cooljay 10.8% 14087 12-21-14
136 SeaWolf 10.7% 14105 12-21-14
137 joecoolgames 10.7% 14106 12-21-14
138 TFEC Headshot 10.1% 14194 12-21-14
139 welshmoose05 10.1% 14197 12-21-14
140 crazy1993 9.8% 14246 12-21-14
141 Mcshuggets 9.7% 14262 12-21-14
142 videogamer1014 9.5% 14290 12-21-14
143 imazor017 9.3% 14332 12-21-14
144 SonicAD 9.2% 14336 12-21-14
145 nuckrieg 9.2% 14340 12-21-14
146 niscool 9.2% 14346 12-21-14
147 SirTobbii 9.1% 14350 12-21-14
148 superjupi 9.0% 14377 12-21-14
149 Shadowthegreat 9.0% 14379 12-21-14
150 SonicWinDX 8.9% 14381 12-21-14
151 SaviourDC 8.7% 14427 12-21-14
152 iarebored 8.6% 14434 12-21-14
153 sonamyfan666 8.6% 14441 12-21-14
154 SonicKnuckles 8.4% 14462 12-21-14
155 Werey 8.3% 14476 12-21-14
156 adf 8.1% 14514 12-21-14
157 ArcticDragon 8.0% 14537 12-21-14
158 Megaman EXE565 7.9% 14540 12-21-14
159 Platformer 7.6% 14596 12-21-14
160 timpkmn89 7.4% 14628 12-21-14
161 wheatrich 7.4% 14630 12-21-14
162 Swift Hobo 7.3% 14640 12-21-14
163 Rickyman48 7.1% 14666 12-21-14
164 KitsuneYamaro 6.9% 14697 12-21-14
165 Triseena 6.8% 14723 12-21-14
166 CyberShadow 6.6% 14758 12-21-14
167 dShadow 6.5% 14762 12-21-14
168 slade23 6.5% 14768 12-21-14
169 Starlight Sable 6.5% 14769 12-21-14
170 IsisDazs 6.3% 14792 12-21-14
171 BlankTH 6.2% 14812 12-21-14
172 Monkeh 5.9% 14862 12-21-14
173 Richied 5.9% 14867 12-21-14
174 DaDude 5.8% 14885 12-21-14
175 sonicd5 5.6% 14910 12-21-14
176 Zip 5.6% 14912 12-21-14
177 tal39h 5.2% 14968 12-21-14
178 Kirbymon30 5.1% 14989 12-21-14
179 soniccoloursunleashed 4.9% 15017 12-21-14
180 Drflash55 4.9% 15018 12-21-14
181 Bass 4.8% 15043 12-21-14
181 neaolas 4.8% 15043 12-21-14
183 superiorsonic 4.6% 15061 12-21-14
184 UninspiredUsername 4.6% 15065 12-21-14
185 Sonicsuperstar1 4.6% 15069 12-21-14
186 zapp 4.6% 15070 12-21-14
187 gamefreak1292 4.5% 15088 12-21-14
188 SonicU260 4.2% 15131 12-21-14
189 Chaos_Overlord 4.2% 15133 12-21-14
190 TakaRikka 4.1% 15155 12-21-14
191 Valfore 4.0% 15158 12-21-14
192 ShinigamiMachine 3.8% 15195 12-21-14
193 Regano1000 3.8% 15200 12-21-14
194 MK 3.6% 15224 12-21-14
195 Ace747 3.6% 15227 12-21-14
196 Illidan 3.2% 15286 12-21-14
197 Venick409 3.1% 15300 12-21-14
198 Sithwarrior26 3.1% 15304 12-21-14
199 Brian_pso 3.1% 15305 12-21-14
200 ingx24 3.0% 15324 12-21-14
201 TheChaosEmeraIds 3.0% 15327 12-21-14
202 SkyBon 2.9% 15336 12-21-14
203 Nickson98 2.9% 15339 12-21-14
204 Fozer 2.8% 15350 12-21-14
205 Colomb_30 2.8% 15356 12-21-14
206 FSSRandomvids 2.7% 15361 12-21-14
207 sonic29887 2.7% 15363 12-21-14
208 TheUltraBlur 2.7% 15375 12-21-14
209 1stKirbyever 2.6% 15383 12-21-14
210 Th4tN1nj4Turtl3 2.4% 15418 12-21-14
211 Cort_pso 2.3% 15427 12-21-14
212 ieatatsonic 2.3% 15430 12-21-14
213 Mariosonic15 2.3% 15437 12-21-14
214 Doom-9 2.3% 15438 12-21-14
215 SuperSonic71087 2.2% 15445 12-21-14
216 MStitomix 2.2% 15455 12-21-14
217 HermitHelmet 2.1% 15456 12-21-14
218 Artie 2.1% 15469 12-21-14
219 Jose_15 2.0% 15481 12-21-14
220 a_moustache 1.9% 15491 12-21-14
221 Questionguy555 1.9% 15492 12-21-14
222 djmat 1.9% 15496 12-21-14
223 sonicandamy 1.7% 15523 12-21-14
224 LancexExWx 1.7% 15525 12-21-14
225 Heroes_Hater 1.7% 15526 12-21-14
226 son1cgu1tar 1.7% 15530 12-21-14
227 Paixii 1.7% 15532 12-21-14
228 BallzeH 1.6% 15548 12-21-14
229 Mankster101 1.5% 15552 12-21-14
230 BecauseWarAnvil 1.5% 15553 12-21-14
231 Jamixesa 1.5% 15557 12-21-14
232 Shanekilz 1.4% 15566 12-21-14
232 SpiritDragon1995 1.4% 15566 12-21-14
234 Crydio 1.4% 15568 12-21-14
235 ReuelBrony 1.4% 15576 12-21-14
236 stanski 1.4% 15581 12-21-14
237 Sonique Hedgehog 1.3% 15588 12-21-14
238 p0ker 1.3% 15597 12-21-14
239 Blue Infamy 1.2% 15599 12-21-14
240 ErrortheCucco 1.2% 15607 12-21-14
241 Arthas 1.2% 15609 12-21-14
242 Rikum22 1.2% 15610 12-21-14
243 sonic1001 1.1% 15618 12-21-14
244 WingedInsignia 1.1% 15621 12-21-14
245 syco1098 1.1% 15625 12-21-14
246 AJSIV 1.1% 15627 12-21-14
247 Sonic the Hedgehod16 1.1% 15628 12-21-14
248 Calfd 1.0% 15636 12-21-14
249 Mariobutch 1.0% 15639 12-21-14
250 BlackArmsShadow 0.9% 15645 12-21-14
251 themachoman202 0.9% 15649 12-21-14
252 shadowblast63 Player Banned 0.9% 15656 12-21-14
253 Fivavoa 0.9% 15657 12-21-14
253 MastaToken 0.9% 15657 12-21-14
255 Ben1502 0.9% 15658 12-21-14
255 Greham Adelphis 0.9% 15658 12-21-14
257 darkstarblaze 0.9% 15660 12-21-14
257 Mr. Jones 0.9% 15660 12-21-14
257 ptorflaxendrosis 0.9% 15660 12-21-14
260 arcfx1985 0.8% 15662 12-21-14
261 FlandreScarlet9999vr 0.8% 15666 12-21-14
262 Gvozdevik 0.8% 15668 12-21-14
263 Knuckles 0.8% 15669 12-21-14
264 KaM Mark MaK 0.8% 15675 12-21-14
265 BeeAwwb 0.8% 15676 12-21-14
266 ShadouZaHejjihoggu 0.7% 15682 12-21-14
267 Sonic62 0.7% 15688 12-21-14
268 darkersupershadic 0.7% 15690 12-21-14
269 Sogeking 0.7% 15692 12-21-14
270 Got4n 0.6% 15695 12-21-14
270 Sarger001 0.6% 15695 12-21-14
270 Shadygamerfreak 0.6% 15695 12-21-14
270 SonicK100 0.6% 15695 12-21-14
274 dragondragon18 0.6% 15696 12-21-14
275 Grady219 0.6% 15697 12-21-14
276 Jawaah 0.6% 15700 12-21-14
277 Antek 0.6% 15704 12-21-14
278 Klaus 0.6% 15706 12-21-14
279 SilverK 0.6% 15707 12-21-14
280 BioShadow 0.5% 15711 12-21-14
281 SpinDashMaster 0.5% 15716 12-21-14
282 Videogamer123 0.5% 15717 12-21-14
283 Egor305 0.4% 15730 12-21-14
283 oTaiIilLsS 0.4% 15730 12-21-14
285 isaihtb11 0.4% 15731 12-21-14
286 OhNoes! 0.4% 15732 12-21-14
287 Mad Andy 0.4% 15733 12-21-14
288 zaktu40 0.4% 15734 12-21-14
289 gaara1234 0.4% 15737 12-21-14
290 gamed00d 0.4% 15738 12-21-14
291 Mister_Slick 0.3% 15748 12-21-14
292 Sonic06Fan 0.3% 15750 12-21-14
293 Rush Hero 0.3% 15751 12-21-14
294 SonicMega167 0.3% 15754 12-21-14
295 Iwannabelink 0.2% 15756 12-21-14
296 sonknuck23 0.2% 15760 12-21-14
297 gamer1245 0.2% 15765 12-21-14
298 DanielTheFalcon 0.2% 15767 12-21-14
299 Burningskull123 0.1% 15773 12-21-14
300 Sonicontherun 0.1% 15783 12-21-14
301 Lil_Dude 0.1% 15787 12-21-14
302 antiwwe 0.0% 15789 12-21-14
303 Genuine Hedgehog 0.0% 15793 12-21-14
304 Cbwade15 0.0% 15794 12-21-14
305 Tyrouble 0.0% 15796 12-21-14
306 MegabombBlade 0.0% 15803 12-21-14
306 neji_hyuuga 0.0% 15803 12-21-14
306 Over 0.0% 15803 12-21-14
306 sdj6707 Player Banned 0.0% 15803 12-21-14
306 Tran Sonic Fan Player Banned 0.0% 15803 12-21-14

This page is using the New Data Table System. [FUTURE]

Game ID: 3 | Category ID: 10
Hits: 3,013 | Hits This Month: 41 | DB Calls: 23 | Mem Usage: 5.42 MB | Time: 0.14s | Printable

The Sonic Center v3.9
Copyright 2003-2011 by The Sonic Center Team.